This is the latest recevied weather packets stored in our database for station/object KO4RMV-3. If no packets are shown the sender has not sent any weather packets the latest 10 day(s).
| Time | Temp. | Humidity | Pressure | Rain* | Wind** | Luminosity | Snow |
|---|---|---|---|---|---|---|---|
| 1777325406 | 19.44° C | 39% | - | 0 mm | - | - | - |
| 1777324506 | 19.44° C | 40% | - | 0 mm | - | - | - |
| 1777323606 | 20° C | 39% | - | 0 mm | - | - | - |
| 1777322705 | 20° C | 37% | - | 0 mm | - | - | - |
| 1777321806 | 20.56° C | 38% | - | 0 mm | - | - | - |
| 1777320905 | 20.56° C | 37% | - | 0 mm | - | - | - |
| 1777320005 | 21.11° C | 36% | - | 0 mm | - | - | - |
| 1777319105 | 21.67° C | 36% | - | 0 mm | - | - | - |
| 1777318205 | 23.33° C | 33% | - | 0 mm | - | - | - |
| 1777317305 | 21.67° C | 38% | - | 0 mm | - | - | - |
| 1777316405 | 20.56° C | 39% | - | 0 mm | - | - | - |
| 1777315505 | 21.11° C | 38% | - | 0 mm | - | - | - |
| 1777314605 | 21.11° C | 39% | - | 0 mm | - | - | - |
| 1777313705 | 21.11° C | 38% | - | 0 mm | - | - | - |
| 1777312806 | 21.11° C | 40% | - | 0 mm | - | - | - |
| 1777311906 | 21.11° C | 38% | - | 0 mm | - | - | - |
| 1777311006 | 21.11° C | 41% | - | 0 mm | - | - | - |
| 1777310106 | 20° C | 44% | - | 0 mm | - | - | - |
| 1777309206 | 19.44° C | 43% | - | 0 mm | - | - | - |
| 1777308306 | 20° C | 44% | - | 0 mm | - | - | - |
| 1777307406 | 18.89° C | 45% | - | 0 mm | - | - | - |
| 1777306505 | 18.89° C | 48% | - | 0 mm | - | - | - |
| 1777305606 | 18.89° C | 51% | - | 0 mm | - | - | - |
| 1777304705 | 17.78° C | 55% | - | 0 mm | - | - | - |
| 1777303805 | 17.78° C | 55% | - | 0 mm | - | - | - |
* Rain latest hour (hover to see other rain measurements)
** Current wind speed in m/s (hover to see current wind gust speed)